• Join FlightAware (Why Join?)
  • Login
  • US Flag 
10:17AM EST


 

Airport Tracker/Info


-or-


 

Live Flight TrackerFlight Track Log ✈ N465TP ✈ 22-Oct-2013 ✈ KBIL - 11WY

Flight Track Log - Related Links

Times and Time Zones

All times are in EDT time to prevent confusion due to time zone crossing. See the N465TP flight status page for this flight to view local times or setup timezone preferences in your user account.

Time Position Orientation Groundspeed Altitude Reporting Facility
EDT Latitude Longitude Course Direction KTS MPH feet Rate Location/Type
06:33PM 45.8522 -108.5739 94° East 145 167 6,200  Level Salt Lake Center
06:35PM 45.8489 -108.5083 94° East 164 189 7,500 1,200 Climbing Salt Lake Center
06:36PM 45.8436 -108.4392 96° East 177 204 8,800 1,260 Climbing Salt Lake Center
06:37PM 45.8247 -108.3636 110° East 187 215 10,200 1,260 Climbing Salt Lake Center
06:38PM 45.8086 -108.2939 108° East 187 215 11,500 1,260 Climbing Salt Lake Center
06:39PM 45.7903 -108.2147 108° East 195 224 12,900 1,320 Climbing Salt Lake Center
06:40PM 45.7731 -108.1411 109° East 196 226 14,300 1,320 Climbing Salt Lake Center
06:41PM 45.7533 -108.0586 109° East 203 234 15,700 1,320 Climbing Salt Lake Center
06:42PM 45.7347 -107.9819 109° East 207 238 17,100 1,200 Climbing Salt Lake Center
06:43PM 45.7150 -107.8964 108° East 210 242 18,200 840 Climbing Salt Lake Center
06:44PM 45.6944 -107.8103 109° East 230 265 18,900 360 Climbing Salt Lake Center
06:45PM 45.6717 -107.7142 109° East 252 290 19,000  Climbing Salt Lake Center
06:46PM 45.6444 -107.5994 109° East 281 323 18,900  Descending Salt Lake Center
06:47PM 45.6225 -107.5017 108° East 284 327 19,000  Climbing Salt Lake Center
06:48PM 45.5961 -107.3958 110° East 282 325 19,000 -60 Level Salt Lake Center
06:49PM 45.5706 -107.2903 109° East 281 323 18,900  Descending Salt Lake Center
06:50PM 45.5394 -107.1636 109° East 282 325 19,000  Climbing Salt Lake Center
06:51PM 45.5144 -107.0544 108° East 285 328 19,000  Level Salt Lake Center
06:52PM 45.4869 -106.9456 110° East 288 331 19,000  Level Salt Lake Center
06:53PM 45.4597 -106.8381 110° East 289 333 19,000  Level Salt Lake Center
06:54PM 45.4325 -106.7297 110° East 290 334 19,000  Level Salt Lake Center
06:55PM 45.4058 -106.6225 109° East 289 333 19,000  Level Salt Lake Center
06:56PM 45.3789 -106.5147 110° East 289 333 19,000  Level Salt Lake Center
06:57PM 45.3517 -106.4086 110° East 288 331 19,000  Level Salt Lake Center
06:58PM 45.3197 -106.2819 110° East 286 329 19,000  Level Salt Lake Center
06:59PM 45.2925 -106.1750 110° East 287 330 19,000 -60 Level Salt Lake Center
07:00PM 45.2658 -106.0681 109° East 287 330 18,900 -660 Descending Salt Lake Center
07:01PM 45.2394 -105.9603 109° East 288 331 17,700 -1,380 Descending Salt Lake Center
07:02PM 45.2122 -105.8600 111° Southeast 283 326 16,100 -1,620 Descending Salt Lake Center
07:03PM 45.1858 -105.7594 110° East 277 319 14,400 -1,680 Descending Salt Lake Center